sensor_id;sensor_type;location;lat;lon;timestamp;pressure;altitude;pressure_sealevel;temperature;humidity
6208;BME280;3137;51.550;7.060;2024-03-02T00:01:24;99754.06;;;7.78;73.25
6208;BME280;3137;51.550;7.060;2024-03-02T00:03:50;99755.22;;;7.76;73.07
6208;BME280;3137;51.550;7.060;2024-03-02T00:06:21;99756.56;;;7.80;72.85
6208;BME280;3137;51.550;7.060;2024-03-02T00:08:50;99755.22;;;7.76;72.98
6208;BME280;3137;51.550;7.060;2024-03-02T00:11:17;99744.03;;;7.72;73.53
6208;BME280;3137;51.550;7.060;2024-03-02T00:13:45;99738.41;;;7.75;73.66
6208;BME280;3137;51.550;7.060;2024-03-02T00:16:11;99746.03;;;7.70;73.44
6208;BME280;3137;51.550;7.060;2024-03-02T00:18:38;99746.69;;;7.72;73.98
6208;BME280;3137;51.550;7.060;2024-03-02T00:21:06;99741.22;;;7.74;73.47
6208;BME280;3137;51.550;7.060;2024-03-02T00:23:37;99741.59;;;7.79;73.74
6208;BME280;3137;51.550;7.060;2024-03-02T00:26:05;99745.56;;;7.75;74.07
6208;BME280;3137;51.550;7.060;2024-03-02T00:28:34;99752.09;;;7.80;73.87
6208;BME280;3137;51.550;7.060;2024-03-02T00:33:32;99738.78;;;7.80;73.83
6208;BME280;3137;51.550;7.060;2024-03-02T00:36:00;99738.25;;;7.77;73.79
6208;BME280;3137;51.550;7.060;2024-03-02T00:38:27;99731.09;;;7.77;74.15
6208;BME280;3137;51.550;7.060;2024-03-02T00:40:55;99731.94;;;7.78;73.75
6208;BME280;3137;51.550;7.060;2024-03-02T00:43:56;99727.31;;;7.80;73.80
6208;BME280;3137;51.550;7.060;2024-03-02T00:46:23;99725.31;;;7.82;73.46
6208;BME280;3137;51.550;7.060;2024-03-02T00:48:56;99724.47;;;7.81;73.34
6208;BME280;3137;51.550;7.060;2024-03-02T00:51:26;99728.28;;;7.79;73.98
6208;BME280;3137;51.550;7.060;2024-03-02T00:53:54;99718.81;;;7.76;73.97
6208;BME280;3137;51.550;7.060;2024-03-02T00:56:24;99714.31;;;7.77;74.08
6208;BME280;3137;51.550;7.060;2024-03-02T00:58:51;99715.31;;;7.76;73.92
6208;BME280;3137;51.550;7.060;2024-03-02T01:01:18;99707.66;;;7.81;73.98
6208;BME280;3137;51.550;7.060;2024-03-02T01:03:46;99714.34;;;7.85;73.58
6208;BME280;3137;51.550;7.060;2024-03-02T01:06:12;99718.41;;;7.97;73.18
6208;BME280;3137;51.550;7.060;2024-03-02T01:08:39;99720.28;;;8.05;72.84
6208;BME280;3137;51.550;7.060;2024-03-02T01:11:05;99723.31;;;8.18;71.96
6208;BME280;3137;51.550;7.060;2024-03-02T01:13:32;99724.97;;;8.19;71.83
6208;BME280;3137;51.550;7.060;2024-03-02T01:15:59;99719.50;;;8.20;71.85
6208;BME280;3137;51.550;7.060;2024-03-02T01:18:26;99717.34;;;8.24;71.87
6208;BME280;3137;51.550;7.060;2024-03-02T01:20:53;99711.53;;;8.28;71.55
6208;BME280;3137;51.550;7.060;2024-03-02T01:23:22;99716.72;;;8.30;71.66
6208;BME280;3137;51.550;7.060;2024-03-02T01:25:49;99715.56;;;8.33;71.36
6208;BME280;3137;51.550;7.060;2024-03-02T01:28:17;99721.09;;;8.39;70.66
6208;BME280;3137;51.550;7.060;2024-03-02T01:30:44;99717.09;;;8.43;70.90
6208;BME280;3137;51.550;7.060;2024-03-02T01:33:11;99712.63;;;8.44;70.28
6208;BME280;3137;51.550;7.060;2024-03-02T01:35:37;99714.97;;;8.55;69.86
6208;BME280;3137;51.550;7.060;2024-03-02T01:38:04;99716.16;;;8.60;69.30
6208;BME280;3137;51.550;7.060;2024-03-02T01:40:34;99708.50;;;8.65;69.34
6208;BME280;3137;51.550;7.060;2024-03-02T01:43:01;99702.34;;;8.73;68.86
6208;BME280;3137;51.550;7.060;2024-03-02T01:45:28;99704.03;;;8.82;68.10
6208;BME280;3137;51.550;7.060;2024-03-02T01:47:55;99700.34;;;8.91;67.74
6208;BME280;3137;51.550;7.060;2024-03-02T01:50:30;99706.69;;;8.90;67.99
6208;BME280;3137;51.550;7.060;2024-03-02T01:52:57;99689.69;;;8.91;67.37
6208;BME280;3137;51.550;7.060;2024-03-02T01:55:24;99702.84;;;9.01;67.08
6208;BME280;3137;51.550;7.060;2024-03-02T01:57:51;99690.19;;;9.03;66.70
6208;BME280;3137;51.550;7.060;2024-03-02T02:00:19;99694.34;;;9.05;66.58
6208;BME280;3137;51.550;7.060;2024-03-02T02:02:50;99695.19;;;9.06;66.33
6208;BME280;3137;51.550;7.060;2024-03-02T02:05:17;99708.53;;;9.06;66.33
6208;BME280;3137;51.550;7.060;2024-03-02T02:07:43;99696.19;;;9.05;66.16
6208;BME280;3137;51.550;7.060;2024-03-02T02:10:10;99694.69;;;9.02;66.42
6208;BME280;3137;51.550;7.060;2024-03-02T02:12:38;99684.88;;;8.95;66.75
6208;BME280;3137;51.550;7.060;2024-03-02T02:15:21;99693.88;;;8.94;66.67
6208;BME280;3137;51.550;7.060;2024-03-02T02:17:48;99689.03;;;8.97;66.80
6208;BME280;3137;51.550;7.060;2024-03-02T02:20:15;99694.69;;;8.94;66.92
6208;BME280;3137;51.550;7.060;2024-03-02T02:22:55;99689.03;;;8.89;66.94
6208;BME280;3137;51.550;7.060;2024-03-02T02:25:21;99693.66;;;8.87;67.13
6208;BME280;3137;51.550;7.060;2024-03-02T02:27:48;99703.00;;;8.83;67.37
6208;BME280;3137;51.550;7.060;2024-03-02T02:30:19;99697.38;;;8.86;67.03
6208;BME280;3137;51.550;7.060;2024-03-02T02:32:46;99702.19;;;8.91;67.12
6208;BME280;3137;51.550;7.060;2024-03-02T02:35:12;99701.38;;;8.90;66.82
6208;BME280;3137;51.550;7.060;2024-03-02T02:37:39;99699.19;;;8.86;67.39
6208;BME280;3137;51.550;7.060;2024-03-02T02:40:06;99705.84;;;8.82;67.26
6208;BME280;3137;51.550;7.060;2024-03-02T02:42:32;99692.34;;;8.83;67.42
6208;BME280;3137;51.550;7.060;2024-03-02T02:44:58;99695.69;;;8.85;67.28
6208;BME280;3137;51.550;7.060;2024-03-02T02:47:25;99686.69;;;8.86;67.20
6208;BME280;3137;51.550;7.060;2024-03-02T02:49:52;99684.03;;;8.86;67.18
6208;BME280;3137;51.550;7.060;2024-03-02T02:52:19;99689.38;;;8.94;66.68
6208;BME280;3137;51.550;7.060;2024-03-02T02:54:46;99689.53;;;8.93;66.83
6208;BME280;3137;51.550;7.060;2024-03-02T02:57:13;99684.03;;;8.94;66.82
6208;BME280;3137;51.550;7.060;2024-03-02T02:59:39;99677.03;;;8.93;66.89
6208;BME280;3137;51.550;7.060;2024-03-02T03:02:06;99679.19;;;8.90;67.16
6208;BME280;3137;51.550;7.060;2024-03-02T03:04:32;99689.69;;;8.91;67.15
6208;BME280;3137;51.550;7.060;2024-03-02T03:06:59;99683.00;;;8.87;67.35
6208;BME280;3137;51.550;7.060;2024-03-02T03:09:25;99673.38;;;8.86;67.46
6208;BME280;3137;51.550;7.060;2024-03-02T03:11:52;99672.19;;;8.89;67.39
6208;BME280;3137;51.550;7.060;2024-03-02T03:14:18;99673.53;;;8.93;67.30
6208;BME280;3137;51.550;7.060;2024-03-02T03:16:46;99678.88;;;8.93;67.01
6208;BME280;3137;51.550;7.060;2024-03-02T03:19:12;99668.03;;;8.94;67.14
6208;BME280;3137;51.550;7.060;2024-03-02T03:21:39;99674.84;;;8.97;66.91
6208;BME280;3137;51.550;7.060;2024-03-02T03:24:05;99674.03;;;8.96;67.00
6208;BME280;3137;51.550;7.060;2024-03-02T03:26:31;99685.88;;;8.94;66.74
6208;BME280;3137;51.550;7.060;2024-03-02T03:28:58;99688.38;;;8.95;67.04
6208;BME280;3137;51.550;7.060;2024-03-02T03:31:24;99688.69;;;8.92;66.93
6208;BME280;3137;51.550;7.060;2024-03-02T03:33:51;99683.19;;;8.94;66.93
6208;BME280;3137;51.550;7.060;2024-03-02T03:36:17;99685.72;;;8.95;66.88
6208;BME280;3137;51.550;7.060;2024-03-02T03:38:44;99687.84;;;9.00;66.54
6208;BME280;3137;51.550;7.060;2024-03-02T03:41:10;99680.38;;;9.03;66.60
6208;BME280;3137;51.550;7.060;2024-03-02T03:43:37;99690.00;;;9.04;66.60
6208;BME280;3137;51.550;7.060;2024-03-02T03:46:03;99695.84;;;9.00;66.64
6208;BME280;3137;51.550;7.060;2024-03-02T03:48:30;99696.19;;;8.97;66.81
6208;BME280;3137;51.550;7.060;2024-03-02T03:50:57;99702.00;;;9.00;66.64
6208;BME280;3137;51.550;7.060;2024-03-02T03:53:23;99700.19;;;9.01;66.64
6208;BME280;3137;51.550;7.060;2024-03-02T03:55:50;99698.84;;;8.97;66.95
6208;BME280;3137;51.550;7.060;2024-03-02T03:58:17;99700.88;;;8.95;67.33
6208;BME280;3137;51.550;7.060;2024-03-02T04:00:48;99700.69;;;8.96;67.10
6208;BME280;3137;51.550;7.060;2024-03-02T04:03:14;99701.03;;;8.93;67.19
6208;BME280;3137;51.550;7.060;2024-03-02T04:05:41;99700.69;;;8.96;66.94
6208;BME280;3137;51.550;7.060;2024-03-02T04:08:07;99699.53;;;8.91;67.16
6208;BME280;3137;51.550;7.060;2024-03-02T04:10:34;99707.53;;;8.91;67.37
6208;BME280;3137;51.550;7.060;2024-03-02T04:13:00;99704.03;;;8.90;67.37
6208;BME280;3137;51.550;7.060;2024-03-02T04:15:27;99694.50;;;8.88;67.83
6208;BME280;3137;51.550;7.060;2024-03-02T04:17:53;99702.50;;;8.88;67.67
6208;BME280;3137;51.550;7.060;2024-03-02T04:20:20;99698.00;;;8.88;67.32
6208;BME280;3137;51.550;7.060;2024-03-02T04:22:46;99705.66;;;8.83;67.74
6208;BME280;3137;51.550;7.060;2024-03-02T04:25:13;99700.69;;;8.80;67.53
6208;BME280;3137;51.550;7.060;2024-03-02T04:27:39;99695.50;;;8.70;68.01
6208;BME280;3137;51.550;7.060;2024-03-02T04:30:07;99714.34;;;8.69;68.33
6208;BME280;3137;51.550;7.060;2024-03-02T04:32:34;99707.31;;;8.68;67.92
6208;BME280;3137;51.550;7.060;2024-03-02T04:35:02;99711.97;;;8.66;68.21
6208;BME280;3137;51.550;7.060;2024-03-02T04:37:29;99705.31;;;8.62;68.25
6208;BME280;3137;51.550;7.060;2024-03-02T04:39:55;99711.81;;;8.67;68.36
6208;BME280;3137;51.550;7.060;2024-03-02T04:42:21;99718.63;;;8.62;68.77
6208;BME280;3137;51.550;7.060;2024-03-02T04:44:48;99718.97;;;8.59;68.50
6208;BME280;3137;51.550;7.060;2024-03-02T04:47:15;99727.94;;;8.58;68.83
6208;BME280;3137;51.550;7.060;2024-03-02T04:49:41;99712.47;;;8.61;68.59
6208;BME280;3137;51.550;7.060;2024-03-02T04:52:08;99715.44;;;8.50;68.89
6208;BME280;3137;51.550;7.060;2024-03-02T04:54:34;99709.94;;;8.44;69.19
6208;BME280;3137;51.550;7.060;2024-03-02T04:57:21;99703.28;;;8.40;69.01
6208;BME280;3137;51.550;7.060;2024-03-02T04:59:47;99717.25;;;8.42;69.01
6208;BME280;3137;51.550;7.060;2024-03-02T05:02:14;99724.91;;;8.37;69.18
6208;BME280;3137;51.550;7.060;2024-03-02T05:04:41;99737.69;;;8.33;69.49
6208;BME280;3137;51.550;7.060;2024-03-02T05:07:08;99737.56;;;8.35;69.36
6208;BME280;3137;51.550;7.060;2024-03-02T05:09:34;99737.88;;;8.32;69.60
6208;BME280;3137;51.550;7.060;2024-03-02T05:12:01;99732.38;;;8.33;69.38
6208;BME280;3137;51.550;7.060;2024-03-02T05:14:55;99734.66;;;8.28;69.62
6208;BME280;3137;51.550;7.060;2024-03-02T05:17:22;99716.19;;;8.26;69.55
6208;BME280;3137;51.550;7.060;2024-03-02T05:19:49;99708.84;;;8.20;69.78
6208;BME280;3137;51.550;7.060;2024-03-02T05:22:15;99720.66;;;8.18;69.96
6208;BME280;3137;51.550;7.060;2024-03-02T05:24:42;99716.16;;;8.18;69.63
6208;BME280;3137;51.550;7.060;2024-03-02T05:27:09;99718.47;;;8.13;69.94
6208;BME280;3137;51.550;7.060;2024-03-02T05:29:35;99730.63;;;8.16;70.14
6208;BME280;3137;51.550;7.060;2024-03-02T05:32:02;99738.56;;;8.08;70.21
6208;BME280;3137;51.550;7.060;2024-03-02T05:34:28;99748.84;;;8.03;70.45
6208;BME280;3137;51.550;7.060;2024-03-02T05:36:56;99732.19;;;7.93;71.25
6208;BME280;3137;51.550;7.060;2024-03-02T05:39:24;99730.66;;;7.90;71.10
6208;BME280;3137;51.550;7.060;2024-03-02T05:41:50;99726.66;;;7.86;71.42
6208;BME280;3137;51.550;7.060;2024-03-02T05:44:16;99733.09;;;7.75;71.54
6208;BME280;3137;51.550;7.060;2024-03-02T05:46:44;99734.22;;;7.73;71.51
6208;BME280;3137;51.550;7.060;2024-03-02T05:49:11;99729.56;;;7.67;72.15
6208;BME280;3137;51.550;7.060;2024-03-02T05:51:37;99739.13;;;7.60;72.70
6208;BME280;3137;51.550;7.060;2024-03-02T05:54:04;99747.94;;;7.60;72.33
6208;BME280;3137;51.550;7.060;2024-03-02T05:56:30;99740.28;;;7.57;72.75
6208;BME280;3137;51.550;7.060;2024-03-02T05:58:57;99743.66;;;7.59;72.49
6208;BME280;3137;51.550;7.060;2024-03-02T06:01:40;99747.75;;;7.54;72.62
6208;BME280;3137;51.550;7.060;2024-03-02T06:04:06;99748.88;;;7.51;72.96
6208;BME280;3137;51.550;7.060;2024-03-02T06:06:33;99743.22;;;7.46;73.30
6208;BME280;3137;51.550;7.060;2024-03-02T06:09:03;99745.50;;;7.41;72.73
6208;BME280;3137;51.550;7.060;2024-03-02T06:11:40;99742.63;;;7.34;73.27
6208;BME280;3137;51.550;7.060;2024-03-02T06:14:08;99749.25;;;7.30;73.24
6208;BME280;3137;51.550;7.060;2024-03-02T06:16:35;99747.22;;;7.24;73.28
6208;BME280;3137;51.550;7.060;2024-03-02T06:19:01;99747.69;;;7.20;73.73
6208;BME280;3137;51.550;7.060;2024-03-02T06:21:28;99758.75;;;7.15;74.13
6208;BME280;3137;51.550;7.060;2024-03-02T06:23:54;99765.44;;;7.19;74.19
6208;BME280;3137;51.550;7.060;2024-03-02T06:26:21;99769.25;;;7.17;74.20
6208;BME280;3137;51.550;7.060;2024-03-02T06:28:51;99769.53;;;7.14;74.17
6208;BME280;3137;51.550;7.060;2024-03-02T06:31:18;99772.66;;;7.09;74.61
6208;BME280;3137;51.550;7.060;2024-03-02T06:33:44;99781.06;;;7.05;74.67
6208;BME280;3137;51.550;7.060;2024-03-02T06:36:11;99784.19;;;7.00;75.39
6208;BME280;3137;51.550;7.060;2024-03-02T06:38:38;99780.56;;;7.01;74.90
6208;BME280;3137;51.550;7.060;2024-03-02T06:41:08;99795.59;;;7.10;75.15
6208;BME280;3137;51.550;7.060;2024-03-02T06:43:35;99793.25;;;7.07;75.28
6208;BME280;3137;51.550;7.060;2024-03-02T06:46:02;99795.59;;;7.10;75.35
6208;BME280;3137;51.550;7.060;2024-03-02T06:48:28;99793.91;;;7.09;74.78
6208;BME280;3137;51.550;7.060;2024-03-02T06:50:56;99798.56;;;7.07;74.98
6208;BME280;3137;51.550;7.060;2024-03-02T06:53:23;99791.56;;;7.06;75.47
6208;BME280;3137;51.550;7.060;2024-03-02T06:55:50;99793.38;;;7.06;75.37
6208;BME280;3137;51.550;7.060;2024-03-02T06:58:16;99796.03;;;7.06;75.21
6208;BME280;3137;51.550;7.060;2024-03-02T07:00:42;99803.34;;;7.04;75.48
6208;BME280;3137;51.550;7.060;2024-03-02T07:03:10;99800.25;;;7.08;75.38
6208;BME280;3137;51.550;7.060;2024-03-02T07:05:36;99809.19;;;7.07;75.13
6208;BME280;3137;51.550;7.060;2024-03-02T07:08:03;99812.16;;;7.04;75.45
6208;BME280;3137;51.550;7.060;2024-03-02T07:10:31;99813.53;;;7.08;75.83
6208;BME280;3137;51.550;7.060;2024-03-02T07:12:57;99819.06;;;7.15;75.61
6208;BME280;3137;51.550;7.060;2024-03-02T07:15:24;99805.63;;;7.16;75.65
6208;BME280;3137;51.550;7.060;2024-03-02T07:17:53;99811.59;;;7.18;75.43
6208;BME280;3137;51.550;7.060;2024-03-02T07:20:20;99820.66;;;7.25;75.46
6208;BME280;3137;51.550;7.060;2024-03-02T07:22:47;99811.91;;;7.33;75.27
6208;BME280;3137;51.550;7.060;2024-03-02T07:25:13;99822.53;;;7.51;74.78
6208;BME280;3137;51.550;7.060;2024-03-02T07:27:43;99811.97;;;7.59;75.09
6208;BME280;3137;51.550;7.060;2024-03-02T07:30:13;99816.41;;;7.76;73.99
6208;BME280;3137;51.550;7.060;2024-03-02T07:32:40;99816.66;;;7.91;73.41
6208;BME280;3137;51.550;7.060;2024-03-02T07:35:08;99818.56;;;8.06;73.01
6208;BME280;3137;51.550;7.060;2024-03-02T07:37:34;99813.16;;;8.16;72.89
6208;BME280;3137;51.550;7.060;2024-03-02T07:40:01;99819.75;;;8.30;72.20
6208;BME280;3137;51.550;7.060;2024-03-02T07:42:27;99815.44;;;8.37;71.56
6208;BME280;3137;51.550;7.060;2024-03-02T07:44:54;99822.81;;;8.43;71.31
6208;BME280;3137;51.550;7.060;2024-03-02T07:47:20;99824.31;;;8.53;70.79
6208;BME280;3137;51.550;7.060;2024-03-02T07:49:47;99823.38;;;8.62;70.31
6208;BME280;3137;51.550;7.060;2024-03-02T07:52:14;99829.22;;;8.66;70.23
6208;BME280;3137;51.550;7.060;2024-03-02T07:54:40;99835.09;;;8.78;69.48
6208;BME280;3137;51.550;7.060;2024-03-02T07:57:07;99824.94;;;8.81;69.02
6208;BME280;3137;51.550;7.060;2024-03-02T07:59:34;99839.47;;;8.87;68.99
6208;BME280;3137;51.550;7.060;2024-03-02T08:02:01;99826.13;;;8.87;69.17
6208;BME280;3137;51.550;7.060;2024-03-02T08:04:28;99830.09;;;8.83;69.45
6208;BME280;3137;51.550;7.060;2024-03-02T08:06:54;99825.31;;;8.94;69.69
6208;BME280;3137;51.550;7.060;2024-03-02T08:09:21;99830.31;;;9.05;68.88
6208;BME280;3137;51.550;7.060;2024-03-02T08:11:48;99834.50;;;9.08;68.77
6208;BME280;3137;51.550;7.060;2024-03-02T08:14:14;99854.69;;;9.18;68.62
6208;BME280;3137;51.550;7.060;2024-03-02T08:16:41;99855.38;;;9.29;68.00
6208;BME280;3137;51.550;7.060;2024-03-02T08:19:07;99855.38;;;9.37;67.45
6208;BME280;3137;51.550;7.060;2024-03-02T08:21:35;99858.06;;;9.45;67.73
6208;BME280;3137;51.550;7.060;2024-03-02T08:24:02;99863.06;;;9.56;67.11
6208;BME280;3137;51.550;7.060;2024-03-02T08:26:29;99860.88;;;9.59;66.98
6208;BME280;3137;51.550;7.060;2024-03-02T08:28:58;99868.06;;;9.67;66.68
6208;BME280;3137;51.550;7.060;2024-03-02T08:31:25;99862.41;;;9.78;66.81
6208;BME280;3137;51.550;7.060;2024-03-02T08:33:51;99874.41;;;9.82;66.32
6208;BME280;3137;51.550;7.060;2024-03-02T08:36:18;99870.06;;;9.89;66.65
6208;BME280;3137;51.550;7.060;2024-03-02T08:38:45;99874.38;;;10.06;66.10
6208;BME280;3137;51.550;7.060;2024-03-02T08:41:12;99860.19;;;10.14;65.11
6208;BME280;3137;51.550;7.060;2024-03-02T08:43:40;99863.19;;;10.27;64.76
6208;BME280;3137;51.550;7.060;2024-03-02T08:46:07;99864.50;;;10.39;64.74
6208;BME280;3137;51.550;7.060;2024-03-02T08:48:34;99858.63;;;10.52;63.98
6208;BME280;3137;51.550;7.060;2024-03-02T08:51:00;99864.09;;;10.59;64.29
6208;BME280;3137;51.550;7.060;2024-03-02T08:53:27;99860.22;;;10.69;63.30
6208;BME280;3137;51.550;7.060;2024-03-02T08:55:53;99866.03;;;10.81;63.33
6208;BME280;3137;51.550;7.060;2024-03-02T08:58:24;99864.94;;;10.98;62.41
6208;BME280;3137;51.550;7.060;2024-03-02T09:00:50;99864.00;;;11.14;61.88
6208;BME280;3137;51.550;7.060;2024-03-02T09:03:17;99860.13;;;11.16;61.37
6208;BME280;3137;51.550;7.060;2024-03-02T09:05:44;99866.78;;;11.20;62.11
6208;BME280;3137;51.550;7.060;2024-03-02T09:08:11;99864.94;;;11.21;61.24
6208;BME280;3137;51.550;7.060;2024-03-02T09:10:37;99866.88;;;11.35;62.00
6208;BME280;3137;51.550;7.060;2024-03-02T09:13:06;99860.53;;;11.36;60.92
6208;BME280;3137;51.550;7.060;2024-03-02T09:15:32;99869.78;;;11.48;59.50
6208;BME280;3137;51.550;7.060;2024-03-02T09:18:03;99876.34;;;11.45;60.12
6208;BME280;3137;51.550;7.060;2024-03-02T09:20:30;99875.00;;;11.41;60.13
6208;BME280;3137;51.550;7.060;2024-03-02T09:22:56;99876.88;;;11.41;60.24
6208;BME280;3137;51.550;7.060;2024-03-02T09:25:23;99873.09;;;11.50;59.33
6208;BME280;3137;51.550;7.060;2024-03-02T09:27:49;99873.34;;;11.63;59.70
6208;BME280;3137;51.550;7.060;2024-03-02T09:30:15;99869.41;;;11.82;59.86
6208;BME280;3137;51.550;7.060;2024-03-02T09:32:42;99876.72;;;11.88;58.51
6208;BME280;3137;51.550;7.060;2024-03-02T09:35:10;99886.53;;;11.96;58.79
6208;BME280;3137;51.550;7.060;2024-03-02T09:37:38;99871.91;;;11.98;58.31
6208;BME280;3137;51.550;7.060;2024-03-02T09:40:05;99879.13;;;11.98;57.71
6208;BME280;3137;51.550;7.060;2024-03-02T09:42:32;99872.81;;;12.13;58.32
6208;BME280;3137;51.550;7.060;2024-03-02T09:44:59;99864.31;;;12.24;57.25
6208;BME280;3137;51.550;7.060;2024-03-02T09:47:25;99869.31;;;12.42;58.84
6208;BME280;3137;51.550;7.060;2024-03-02T09:49:52;99873.56;;;12.36;57.18
6208;BME280;3137;51.550;7.060;2024-03-02T09:52:18;99873.75;;;12.50;57.07
6208;BME280;3137;51.550;7.060;2024-03-02T09:54:47;99868.31;;;12.43;56.81
6208;BME280;3137;51.550;7.060;2024-03-02T09:57:14;99874.88;;;12.55;55.99
6208;BME280;3137;51.550;7.060;2024-03-02T09:59:41;99868.41;;;12.64;55.79
6208;BME280;3137;51.550;7.060;2024-03-02T10:02:07;99859.69;;;12.62;55.13
6208;BME280;3137;51.550;7.060;2024-03-02T10:04:34;99882.06;;;12.55;55.53
6208;BME280;3137;51.550;7.060;2024-03-02T10:07:16;99865.25;;;12.46;55.55
6208;BME280;3137;51.550;7.060;2024-03-02T10:09:44;99866.44;;;12.44;55.36
6208;BME280;3137;51.550;7.060;2024-03-02T10:12:15;99861.72;;;12.60;55.86
6208;BME280;3137;51.550;7.060;2024-03-02T10:14:43;99868.09;;;12.74;55.36
6208;BME280;3137;51.550;7.060;2024-03-02T10:17:11;99859.19;;;12.88;56.37
6208;BME280;3137;51.550;7.060;2024-03-02T10:19:38;99859.44;;;13.08;55.95
6208;BME280;3137;51.550;7.060;2024-03-02T10:22:07;99861.91;;;13.24;54.21
6208;BME280;3137;51.550;7.060;2024-03-02T10:24:37;99853.09;;;13.30;53.50
6208;BME280;3137;51.550;7.060;2024-03-02T10:27:08;99857.66;;;13.51;54.37
6208;BME280;3137;51.550;7.060;2024-03-02T10:29:39;99849.03;;;13.55;52.86
6208;BME280;3137;51.550;7.060;2024-03-02T10:32:10;99859.91;;;13.68;52.97
6208;BME280;3137;51.550;7.060;2024-03-02T10:34:40;99856.19;;;13.69;52.39
6208;BME280;3137;51.550;7.060;2024-03-02T10:37:07;99854.00;;;13.58;51.56
6208;BME280;3137;51.550;7.060;2024-03-02T10:39:34;99843.34;;;13.65;52.05
6208;BME280;3137;51.550;7.060;2024-03-02T10:42:03;99849.53;;;13.65;51.54
6208;BME280;3137;51.550;7.060;2024-03-02T10:44:30;99853.16;;;13.79;53.31
6208;BME280;3137;51.550;7.060;2024-03-02T10:47:01;99855.09;;;13.85;52.48
6208;BME280;3137;51.550;7.060;2024-03-02T10:49:30;99850.94;;;13.83;50.97
6208;BME280;3137;51.550;7.060;2024-03-02T10:52:00;99852.59;;;13.62;51.23
6208;BME280;3137;51.550;7.060;2024-03-02T10:54:28;99845.06;;;13.51;50.81
6208;BME280;3137;51.550;7.060;2024-03-02T10:57:04;99845.31;;;13.56;51.22
6208;BME280;3137;51.550;7.060;2024-03-02T10:59:35;99846.22;;;13.63;52.48
6208;BME280;3137;51.550;7.060;2024-03-02T11:02:04;99838.00;;;13.71;51.37
6208;BME280;3137;51.550;7.060;2024-03-02T11:04:32;99841.16;;;13.54;52.19
6208;BME280;3137;51.550;7.060;2024-03-02T11:07:09;99837.00;;;13.72;52.47
6208;BME280;3137;51.550;7.060;2024-03-02T11:09:59;99827.56;;;14.04;52.57
6208;BME280;3137;51.550;7.060;2024-03-02T11:12:29;99837.84;;;14.29;52.32
6208;BME280;3137;51.550;7.060;2024-03-02T11:14:58;99844.78;;;14.16;50.19
6208;BME280;3137;51.550;7.060;2024-03-02T11:17:25;99835.94;;;14.23;49.48
6208;BME280;3137;51.550;7.060;2024-03-02T11:19:52;99835.69;;;14.17;49.94
6208;BME280;3137;51.550;7.060;2024-03-02T11:22:19;99836.56;;;14.25;49.13
6208;BME280;3137;51.550;7.060;2024-03-02T11:24:50;99833.47;;;14.28;49.54
6208;BME280;3137;51.550;7.060;2024-03-02T11:32:58;99818.75;;;14.51;47.97
6208;BME280;3137;51.550;7.060;2024-03-02T11:35:26;99821.84;;;14.48;48.65
6208;BME280;3137;51.550;7.060;2024-03-02T11:37:52;99809.28;;;14.62;48.41
6208;BME280;3137;51.550;7.060;2024-03-02T11:40:22;99804.09;;;14.54;47.98
6208;BME280;3137;51.550;7.060;2024-03-02T11:42:48;99806.00;;;14.67;48.80
6208;BME280;3137;51.550;7.060;2024-03-02T11:45:33;99811.41;;;14.73;49.10
6208;BME280;3137;51.550;7.060;2024-03-02T11:48:00;99813.91;;;14.81;47.69
6208;BME280;3137;51.550;7.060;2024-03-02T11:50:30;99810.03;;;14.90;47.15
6208;BME280;3137;51.550;7.060;2024-03-02T11:52:58;99797.22;;;14.92;47.17
6208;BME280;3137;51.550;7.060;2024-03-02T11:55:28;99805.56;;;15.11;47.30
6208;BME280;3137;51.550;7.060;2024-03-02T11:57:55;99807.81;;;15.14;46.28
6208;BME280;3137;51.550;7.060;2024-03-02T12:00:22;99802.22;;;15.02;46.24
6208;BME280;3137;51.550;7.060;2024-03-02T12:03:05;99804.25;;;15.06;46.76
6208;BME280;3137;51.550;7.060;2024-03-02T12:05:33;99796.44;;;15.18;45.64
6208;BME280;3137;51.550;7.060;2024-03-02T12:08:01;99800.63;;;15.27;46.56
6208;BME280;3137;51.550;7.060;2024-03-02T12:10:29;99795.41;;;15.19;46.51
6208;BME280;3137;51.550;7.060;2024-03-02T12:12:59;99788.34;;;15.12;46.92
6208;BME280;3137;51.550;7.060;2024-03-02T12:15:27;99782.53;;;15.01;46.74
6208;BME280;3137;51.550;7.060;2024-03-02T12:17:59;99786.06;;;15.02;45.58
6208;BME280;3137;51.550;7.060;2024-03-02T12:20:27;99788.25;;;14.85;46.30
6208;BME280;3137;51.550;7.060;2024-03-02T12:22:58;99785.97;;;14.76;45.86
6208;BME280;3137;51.550;7.060;2024-03-02T12:25:25;99782.81;;;14.66;46.33
6208;BME280;3137;51.550;7.060;2024-03-02T12:27:56;99783.22;;;14.62;46.59
6208;BME280;3137;51.550;7.060;2024-03-02T12:30:23;99784.84;;;14.57;47.16
6208;BME280;3137;51.550;7.060;2024-03-02T12:32:50;99785.66;;;14.51;47.45
6208;BME280;3137;51.550;7.060;2024-03-02T12:35:17;99776.44;;;14.32;47.76
6208;BME280;3137;51.550;7.060;2024-03-02T12:37:46;99769.53;;;14.16;47.99
6208;BME280;3137;51.550;7.060;2024-03-02T12:40:13;99771.13;;;14.11;48.83
6208;BME280;3137;51.550;7.060;2024-03-02T12:42:40;99771.13;;;14.11;50.14
6208;BME280;3137;51.550;7.060;2024-03-02T12:45:08;99766.84;;;14.16;49.84
6208;BME280;3137;51.550;7.060;2024-03-02T12:47:35;99762.97;;;14.32;50.07
6208;BME280;3137;51.550;7.060;2024-03-02T12:50:03;99764.94;;;14.45;49.35
6208;BME280;3137;51.550;7.060;2024-03-02T12:52:30;99757.53;;;14.53;49.85
6208;BME280;3137;51.550;7.060;2024-03-02T12:55:03;99759.22;;;14.61;49.96
6208;BME280;3137;51.550;7.060;2024-03-02T12:57:32;99756.31;;;14.62;48.67
6208;BME280;3137;51.550;7.060;2024-03-02T13:00:03;99757.50;;;14.47;48.16
6208;BME280;3137;51.550;7.060;2024-03-02T13:02:36;99747.97;;;14.44;49.04
6208;BME280;3137;51.550;7.060;2024-03-02T13:05:03;99748.56;;;14.40;48.88
6208;BME280;3137;51.550;7.060;2024-03-02T13:07:29;99747.72;;;14.39;48.73
6208;BME280;3137;51.550;7.060;2024-03-02T13:09:56;99744.88;;;14.47;48.71
6208;BME280;3137;51.550;7.060;2024-03-02T13:12:24;99744.69;;;14.49;49.24
6208;BME280;3137;51.550;7.060;2024-03-02T13:14:54;99743.97;;;14.34;48.13
6208;BME280;3137;51.550;7.060;2024-03-02T13:17:21;99750.25;;;14.41;48.56
6208;BME280;3137;51.550;7.060;2024-03-02T13:22:19;99743.34;;;14.32;49.21
6208;BME280;3137;51.550;7.060;2024-03-02T13:24:46;99741.28;;;14.34;49.74
6208;BME280;3137;51.550;7.060;2024-03-02T13:27:12;99748.31;;;14.35;49.27
6208;BME280;3137;51.550;7.060;2024-03-02T13:29:39;99739.81;;;14.31;49.59
6208;BME280;3137;51.550;7.060;2024-03-02T13:32:05;99739.38;;;14.28;49.29
6208;BME280;3137;51.550;7.060;2024-03-02T13:34:32;99736.22;;;14.17;50.41
6208;BME280;3137;51.550;7.060;2024-03-02T13:36:58;99734.78;;;14.15;49.79
6208;BME280;3137;51.550;7.060;2024-03-02T13:39:27;99726.13;;;14.19;50.75
6208;BME280;3137;51.550;7.060;2024-03-02T13:41:58;99730.66;;;14.19;50.71
6208;BME280;3137;51.550;7.060;2024-03-02T13:44:30;99718.44;;;14.16;50.43